Mauriceville, Texas
Current Conditions -  °F | °C
As of 9:55 AM on Friday 31 Oct 2014 (Local Time) from KORG Reporting Station
Clear Clear  
Wind Chill: 63°   Ceiling: Unl
Heat Index: 63°   Visibility: 10mi
Dew Point: 52°   Wind: 6mph
Humidity: 68%   Direction: 350°N
Pressure: 30.16"   Gusts: NA
Location:  30.2°N, 93.87°W
Report Text: KORG 311455Z AUTO 35005KT 10SM CLR 17/11 A3016 RMK AO2 T01710111
Loading
Personal Weather Stations






























Interactive Weather Map New forecast layout! Learn more

10-Day Weather Forecast

Advertisements
Track Severe Weather on mobile